Time;durP1;ratioP1;P1;durP2;ratioP2;P2;SDS_P1;SDS_P2;PMS_P1;PMS_P2;Temp;Humidity;BMP_temperature;BMP_pressure;BME280_temperature;BME280_humidity;BME280_pressure;Samples;Min_cycle;Max_cycle;Signal;HPM_P1;HPM_P2
2023/06/28 00:01:45;;;;;;;6.10;2.03;;;;;;;17.73;76.78;101361.91;5037127;28;20113;-64
2023/06/28 00:04:11;;;;;;;7.97;2.47;;;;;;;17.73;76.79;101350.59;5037550;28;20051;-65
2023/06/28 00:06:36;;;;;;;7.97;2.35;;;;;;;17.71;76.73;101352.41;5036897;28;20048;-65
2023/06/28 00:09:01;;;;;;;6.90;2.47;;;;;;;17.71;77.28;101361.13;5039112;28;20041;-64
2023/06/28 00:11:28;;;;;;;10.93;2.90;;;;;;;17.68;77.09;101353.34;5036585;28;20052;-64
2023/06/28 00:13:53;;;;;;;6.70;2.25;;;;;;;17.66;77.23;101356.91;5035228;28;20031;-65
2023/06/28 00:16:19;;;;;;;4.93;2.58;;;;;;;17.65;77.64;101361.28;5038939;28;20576;-64
2023/06/28 00:18:45;;;;;;;6.55;2.60;;;;;;;17.63;77.07;101359.63;5036377;28;20465;-64
2023/06/28 00:21:13;;;;;;;7.25;2.58;;;;;;;17.62;77.60;101356.13;5037213;28;20044;-66
2023/06/28 00:23:39;;;;;;;6.72;2.50;;;;;;;17.61;77.30;101349.19;5037870;28;20033;-66
2023/06/28 00:26:04;;;;;;;4.03;2.30;;;;;;;17.61;77.71;101354.41;5039072;28;20055;-65
2023/06/28 00:28:30;;;;;;;6.45;2.53;;;;;;;17.62;78.06;101357.91;5038157;28;20037;-65
2023/06/28 00:30:55;;;;;;;11.13;3.50;;;;;;;17.62;77.95;101365.75;5041045;28;20044;-64
2023/06/28 00:33:21;;;;;;;6.05;2.78;;;;;;;17.61;77.82;101361.41;5038622;28;20041;-65
2023/06/28 00:35:49;;;;;;;6.00;2.50;;;;;;;17.61;77.76;101364.00;5037627;28;20040;-65
2023/06/28 00:38:15;;;;;;;7.38;2.58;;;;;;;17.59;77.83;101358.84;5037261;28;20029;-65
2023/06/28 00:40:40;;;;;;;8.07;2.65;;;;;;;17.60;77.94;101360.53;5035637;28;20051;-65
2023/06/28 00:43:06;;;;;;;7.75;3.25;;;;;;;17.62;77.86;101360.50;5037687;28;20147;-65
2023/06/28 00:45:31;;;;;;;4.88;2.40;;;;;;;17.62;77.37;101353.53;5036435;28;20036;-65
2023/06/28 00:47:56;;;;;;;6.45;2.80;;;;;;;17.60;76.76;101357.91;5037643;28;20041;-64
2023/06/28 00:50:22;;;;;;;5.45;2.20;;;;;;;17.59;76.97;101366.69;5037656;28;20044;-64
2023/06/28 00:52:48;;;;;;;5.97;2.70;;;;;;;17.57;76.56;101365.88;5035671;28;20180;-64
2023/06/28 00:55:14;;;;;;;6.40;2.40;;;;;;;17.58;76.94;101366.72;5037457;28;20123;-65
2023/06/28 00:57:39;;;;;;;6.15;2.10;;;;;;;17.59;76.99;101368.44;5038578;28;20045;-64
2023/06/28 01:00:11;;;;;;;6.72;2.17;;;;;;;17.59;77.01;101368.44;5034230;28;20069;-65
2023/06/28 01:02:41;;;;;;;7.68;2.80;;;;;;;17.58;76.62;101370.19;5035465;28;20033;-64
2023/06/28 01:05:08;;;;;;;4.35;2.17;;;;;;;17.58;76.59;101366.72;5037084;28;20033;-64
2023/06/28 01:07:36;;;;;;;7.15;2.67;;;;;;;17.55;77.01;101366.78;5035954;28;20622;-64
2023/06/28 01:10:01;;;;;;;7.38;2.72;;;;;;;17.54;77.01;101367.72;5034201;28;20144;-65
2023/06/28 01:12:27;;;;;;;9.00;2.55;;;;;;;17.53;77.16;101376.44;5034191;28;20663;-65
2023/06/28 01:14:53;;;;;;;9.80;2.50;;;;;;;17.54;77.12;101372.94;5039450;28;20809;-65
2023/06/28 01:17:19;;;;;;;6.68;2.40;;;;;;;17.52;76.66;101365.13;5037482;28;20037;-65
2023/06/28 01:19:45;;;;;;;5.70;2.38;;;;;;;17.52;76.88;101374.72;5030633;28;20060;-65
2023/06/28 01:22:13;;;;;;;3.90;1.73;;;;;;;17.53;77.02;101371.22;5034308;28;20681;-64
2023/06/28 01:24:38;;;;;;;7.20;2.25;;;;;;;17.52;77.50;101372.97;5032212;28;20033;-65
2023/06/28 01:27:07;;;;;;;6.45;2.88;;;;;;;17.53;77.51;101373.81;5025447;28;20802;-65
2023/06/28 01:29:33;;;;;;;7.07;2.53;;;;;;;17.54;77.69;101371.19;5030975;28;20029;-65
2023/06/28 01:31:59;;;;;;;8.85;2.60;;;;;;;17.53;77.78;101371.22;5029971;28;20025;-65
2023/06/28 01:34:26;;;;;;;6.20;2.72;;;;;;;17.53;77.78;101372.06;5034551;28;20166;-64
2023/06/28 01:36:54;;;;;;;4.75;2.17;;;;;;;17.50;78.00;101371.28;5036823;28;20079;-65
2023/06/28 01:39:21;;;;;;;8.15;2.55;;;;;;;17.50;77.87;101377.38;5037483;28;20434;-65
2023/06/28 01:41:47;;;;;;;4.95;1.90;;;;;;;17.50;77.80;101380.00;5034748;28;20064;-65
2023/06/28 01:44:13;;;;;;;7.60;2.63;;;;;;;17.49;78.13;101375.66;5034317;28;20132;-64
2023/06/28 01:46:39;;;;;;;7.07;2.30;;;;;;;17.49;77.79;101374.81;5032073;28;20138;-66
2023/06/28 01:49:05;;;;;;;7.78;2.72;;;;;;;17.50;77.17;101369.53;5033917;28;20037;-64
2023/06/28 01:51:31;;;;;;;5.30;2.35;;;;;;;17.49;77.08;101364.34;5031773;28;20041;-65
2023/06/28 01:53:56;;;;;;;4.53;2.22;;;;;;;17.47;76.93;101367.00;5037501;28;20044;-65
2023/06/28 01:56:22;;;;;;;6.82;2.42;;;;;;;17.48;76.78;101371.34;5023538;28;20509;-64
2023/06/28 01:58:47;;;;;;;5.80;2.45;;;;;;;17.49;76.95;101373.06;5038805;28;20053;-64
2023/06/28 02:01:13;;;;;;;9.63;2.28;;;;;;;17.47;76.37;101372.25;5025506;28;20151;-64
2023/06/28 02:03:38;;;;;;;4.05;2.25;;;;;;;17.48;76.21;101370.50;5038344;28;20498;-65
2023/06/28 02:06:04;;;;;;;5.40;2.08;;;;;;;17.48;76.27;101375.72;5043646;28;20120;-65
2023/06/28 02:08:29;;;;;;;5.60;2.30;;;;;;;17.48;76.17;101373.09;5037890;28;20037;-64
2023/06/28 02:10:54;;;;;;;5.30;2.30;;;;;;;17.47;75.87;101379.22;5022495;28;20547;-64
2023/06/28 02:13:20;;;;;;;6.90;2.17;;;;;;;17.43;75.48;101373.22;5040496;28;20037;-65
2023/06/28 02:15:45;;;;;;;6.20;2.45;;;;;;;17.39;75.92;101369.81;5038389;28;20040;-66
2023/06/28 02:18:11;;;;;;;4.05;1.95;;;;;;;17.40;76.37;101378.53;5036076;28;20041;-65
2023/06/28 02:20:37;;;;;;;11.80;2.45;;;;;;;17.42;76.48;101384.59;5032863;28;20037;-64
2023/06/28 02:23:03;;;;;;;8.13;2.15;;;;;;;17.42;76.52;101380.19;5037435;28;20025;-65
2023/06/28 02:25:28;;;;;;;3.97;2.40;;;;;;;17.39;75.96;101382.06;5033592;28;20048;-66
2023/06/28 02:27:53;;;;;;;4.68;2.22;;;;;;;17.36;76.30;101385.56;5035413;28;20549;-64
2023/06/28 02:30:19;;;;;;;6.18;2.67;;;;;;;17.34;76.47;101381.28;5036411;28;20160;-64
2023/06/28 02:32:44;;;;;;;6.53;2.78;;;;;;;17.30;76.90;101384.91;5034805;28;20822;-64
2023/06/28 02:35:09;;;;;;;4.35;2.55;;;;;;;17.24;76.92;101385.94;5037586;28;20041;-64
2023/06/28 02:37:35;;;;;;;4.90;2.33;;;;;;;17.20;77.32;101383.41;5042882;28;20048;-65
2023/06/28 02:40:01;;;;;;;8.20;2.72;;;;;;;17.15;77.35;101390.53;5039008;28;20056;-65
2023/06/28 02:42:26;;;;;;;5.43;2.30;;;;;;;17.09;77.60;101386.31;5039654;28;20390;-65
2023/06/28 02:44:51;;;;;;;4.53;2.30;;;;;;;17.05;77.68;101387.28;5040398;28;20129;-65
2023/06/28 02:47:17;;;;;;;6.40;2.50;;;;;;;17.00;78.09;101391.78;5042183;28;20060;-65
2023/06/28 02:49:42;;;;;;;8.65;2.38;;;;;;;16.94;78.70;101399.75;5037684;28;20079;-65
2023/06/28 02:52:07;;;;;;;4.35;1.90;;;;;;;16.90;78.98;101392.00;5041814;28;20061;-65
2023/06/28 02:54:33;;;;;;;6.10;1.63;;;;;;;16.86;79.18;101397.31;5026519;28;20112;-64
2023/06/28 02:56:58;;;;;;;6.85;2.28;;;;;;;16.83;79.84;101392.16;5041223;28;20103;-64
2023/06/28 02:59:23;;;;;;;2.80;1.70;;;;;;;16.82;80.04;101402.66;5036333;28;20041;-64
2023/06/28 03:01:49;;;;;;;3.20;1.50;;;;;;;16.80;80.08;101391.41;5041626;28;20072;-65
2023/06/28 03:04:14;;;;;;;6.13;2.40;;;;;;;16.78;80.48;101391.41;5038969;28;20178;-65
2023/06/28 03:06:41;;;;;;;2.95;1.90;;;;;;;16.78;80.39;101393.16;5039862;28;20041;-65
2023/06/28 03:09:06;;;;;;;4.45;2.15;;;;;;;16.76;80.80;101389.72;5021329;28;20048;-65
2023/06/28 03:11:31;;;;;;;5.35;2.35;;;;;;;16.74;80.99;101387.13;5037461;28;20056;-64
2023/06/28 03:13:57;;;;;;;2.88;1.88;;;;;;;16.73;81.12;101392.41;5037679;28;20025;-65
2023/06/28 03:16:23;;;;;;;3.17;1.83;;;;;;;16.70;81.15;101387.25;5042009;28;20071;-65
2023/06/28 03:18:48;;;;;;;6.20;2.30;;;;;;;16.67;80.71;101385.56;5037112;28;20052;-66
2023/06/28 03:21:13;;;;;;;2.42;1.73;;;;;;;16.67;81.35;101384.72;5037222;28;20877;-65
2023/06/28 03:23:39;;;;;;;6.50;2.42;;;;;;;16.65;81.11;101384.72;5038108;28;20033;-65
2023/06/28 03:26:04;;;;;;;7.88;2.22;;;;;;;16.67;80.21;101377.75;5041746;28;20032;-65
2023/06/28 03:28:30;;;;;;;3.08;1.90;;;;;;;16.71;79.79;101379.34;5042412;28;20042;-66
2023/06/28 03:30:56;;;;;;;6.25;2.45;;;;;;;16.75;79.72;101377.53;5039852;28;20041;-65
2023/06/28 03:33:22;;;;;;;8.48;2.05;;;;;;;16.78;79.53;101372.28;5039022;28;20033;-65
2023/06/28 03:35:47;;;;;;;2.45;1.63;;;;;;;16.80;79.52;101373.94;5039572;28;20846;-64
2023/06/28 03:38:12;;;;;;;4.43;1.90;;;;;;;16.83;79.18;101367.78;5042457;28;20041;-65
2023/06/28 03:40:38;;;;;;;5.72;2.25;;;;;;;16.85;79.25;101366.03;5038338;28;20047;-65
2023/06/28 03:43:03;;;;;;;3.90;1.98;;;;;;;16.89;79.51;101366.81;5042164;28;20045;-65
2023/06/28 03:45:29;;;;;;;9.05;2.40;;;;;;;16.95;78.89;101358.84;5039377;28;20067;-65
2023/06/28 03:47:54;;;;;;;4.63;1.92;;;;;;;17.00;78.79;101359.56;5022144;28;20045;-64
2023/06/28 03:50:20;;;;;;;4.63;1.92;;;;;;;17.05;78.38;101361.16;5034947;28;20063;-65
2023/06/28 03:52:45;;;;;;;6.53;2.40;;;;;;;17.10;78.33;101368.88;5039559;28;20151;-66
2023/06/28 03:55:11;;;;;;;4.82;2.55;;;;;;;17.15;78.20;101367.00;5036660;28;20033;-66
2023/06/28 03:57:36;;;;;;;4.88;2.25;;;;;;;17.22;78.19;101372.03;5039030;28;20547;-66
2023/06/28 04:00:04;;;;;;;5.85;2.70;;;;;;;17.25;77.82;101369.34;5034337;28;20091;-65
2023/06/28 04:02:29;;;;;;;5.43;2.55;;;;;;;17.27;77.75;101364.94;5039050;28;20025;-65
2023/06/28 04:04:54;;;;;;;4.25;2.17;;;;;;;17.30;78.41;101377.06;5025685;28;20049;-65
2023/06/28 04:07:24;;;;;;;6.00;2.70;;;;;;;17.30;78.06;101364.00;5037565;28;20036;-66
2023/06/28 04:09:53;;;;;;;5.30;2.50;;;;;;;17.34;78.00;101368.22;5039101;28;20075;-65
2023/06/28 04:12:18;;;;;;;4.10;2.60;;;;;;;17.36;78.05;101369.06;5036211;28;20123;-64
2023/06/28 04:14:44;;;;;;;3.80;2.03;;;;;;;17.37;78.19;101369.00;5044160;28;20151;-64
2023/06/28 04:17:09;;;;;;;5.85;3.10;;;;;;;17.37;77.97;101363.78;5041944;28;20048;-65
2023/06/28 04:19:35;;;;;;;4.80;2.55;;;;;;;17.37;78.17;101357.69;5038919;28;20071;-65
2023/06/28 04:22:01;;;;;;;6.65;2.78;;;;;;;17.36;78.15;101356.84;5038817;28;20037;-65
2023/06/28 04:24:26;;;;;;;7.82;3.20;;;;;;;17.35;78.14;101362.13;5035726;28;20060;-66
2023/06/28 04:26:51;;;;;;;4.97;2.47;;;;;;;17.38;78.02;101365.50;5041520;28;20556;-65
2023/06/28 04:29:17;;;;;;;4.45;2.42;;;;;;;17.39;77.89;101364.59;5036828;28;20063;-65
2023/06/28 04:31:42;;;;;;;4.38;2.20;;;;;;;17.39;78.02;101372.44;5036563;28;20044;-65
2023/06/28 04:34:07;;;;;;;6.18;2.70;;;;;;;17.41;78.23;101375.03;5042096;28;20044;-65
2023/06/28 04:36:33;;;;;;;7.35;2.42;;;;;;;17.41;78.72;101377.63;5036314;28;20049;-65
2023/06/28 04:38:58;;;;;;;4.10;2.22;;;;;;;17.42;79.33;101376.75;5036947;28;20060;-65
2023/06/28 04:41:25;;;;;;;6.25;2.25;;;;;;;17.44;79.25;101369.72;5037673;28;20029;-66
2023/06/28 04:43:55;;;;;;;6.07;2.70;;;;;;;17.46;79.31;101370.53;5032709;28;20779;-66
2023/06/28 04:46:26;;;;;;;10.00;2.60;;;;;;;17.51;78.99;101373.88;5038248;28;20037;-66
2023/06/28 04:48:53;;;;;;;5.90;2.33;;;;;;;17.58;78.95;101375.41;5035262;28;20122;-65
2023/06/28 04:51:20;;;;;;;7.57;2.80;;;;;;;17.72;78.54;101368.03;5036652;28;20087;-66
2023/06/28 04:53:46;;;;;;;9.50;3.22;;;;;;;17.84;78.04;101370.34;5037906;28;20041;-65
2023/06/28 04:56:12;;;;;;;5.10;2.45;;;;;;;17.97;77.38;101371.72;5035101;28;20013;-65
2023/06/28 04:58:38;;;;;;;5.50;2.63;;;;;;;18.08;76.82;101366.16;5038104;28;20128;-64
2023/06/28 05:01:06;;;;;;;6.80;3.30;;;;;;;18.12;76.25;101359.94;5039948;28;20037;-67
2023/06/28 05:03:31;;;;;;;7.03;2.75;;;;;;;18.11;75.95;101360.84;5040389;28;20037;-65
2023/06/28 05:05:57;;;;;;;5.05;2.67;;;;;;;18.14;76.23;101363.34;5041255;28;20053;-64
2023/06/28 05:08:22;;;;;;;6.20;2.67;;;;;;;18.20;76.25;101370.16;5042374;28;20091;-64
2023/06/28 05:10:48;;;;;;;5.75;2.60;;;;;;;18.19;75.61;101363.25;5040381;28;20154;-64
2023/06/28 05:13:14;;;;;;;9.32;2.95;;;;;;;18.25;75.98;101369.16;5035425;28;20141;-64
2023/06/28 05:15:39;;;;;;;10.10;3.30;;;;;;;18.32;75.92;101359.31;5002953;28;20635;-65
2023/06/28 05:18:04;;;;;;;4.13;2.75;;;;;;;18.35;75.03;101364.47;5038627;28;20059;-64
2023/06/28 05:20:31;;;;;;;5.45;2.85;;;;;;;18.33;75.16;101356.69;5038127;28;20048;-64
2023/06/28 05:23:16;;;;;;;7.03;3.17;;;;;;;18.27;74.44;101363.84;5038754;28;20040;-67
2023/06/28 05:25:43;;;;;;;8.45;3.13;;;;;;;18.18;74.70;101365.00;5039060;28;20072;-65
2023/06/28 05:28:11;;;;;;;6.70;2.75;;;;;;;18.25;75.02;101363.91;5039108;28;20102;-64
2023/06/28 05:30:36;;;;;;;5.05;2.55;;;;;;;18.35;75.40;101365.31;5035689;28;20046;-65
2023/06/28 05:33:02;;;;;;;6.47;3.13;;;;;;;18.45;74.63;101352.81;5042193;28;20048;-64
2023/06/28 05:35:35;;;;;;;5.20;2.97;;;;;;;18.55;73.86;101345.53;5035821;28;20032;-64
2023/06/28 05:38:02;;;;;;;7.55;2.95;;;;;;;18.60;74.64;101357.56;5037906;28;20037;-66
2023/06/28 05:40:29;;;;;;;8.15;2.60;;;;;;;18.67;73.91;101348.59;5025182;28;20045;-65
2023/06/28 05:42:57;;;;;;;6.13;2.33;;;;;;;18.65;70.59;101319.00;5033660;28;20128;-65
2023/06/28 05:45:23;;;;;;;4.30;2.22;;;;;;;18.70;71.29;101348.50;5028399;28;20063;-64
2023/06/28 05:47:49;;;;;;;7.82;2.80;;;;;;;18.82;71.86;101342.03;5029641;28;20671;-65
2023/06/28 05:50:15;;;;;;;5.75;3.05;;;;;;;18.94;71.60;101346.88;5027313;28;20024;-66
2023/06/28 05:52:43;;;;;;;5.95;2.38;;;;;;;19.02;70.39;101339.63;5035940;28;20033;-66
2023/06/28 05:55:08;;;;;;;5.68;2.22;;;;;;;19.06;69.23;101328.13;5030281;28;20067;-66
2023/06/28 05:57:34;;;;;;;8.05;2.72;;;;;;;19.11;68.59;101323.59;5035496;28;20525;-66
2023/06/28 05:59:59;;;;;;;7.00;2.20;;;;;;;19.22;68.90;101329.31;5032772;28;20041;-66
2023/06/28 06:02:27;;;;;;;4.45;2.20;;;;;;;19.26;69.00;101332.69;5037717;28;20037;-65
2023/06/28 06:04:52;;;;;;;5.72;2.35;;;;;;;19.23;68.75;101331.03;5033859;28;20124;-65
2023/06/28 06:07:17;;;;;;;6.38;2.47;;;;;;;19.22;69.11;101331.94;5033568;28;20122;-66
2023/06/28 06:09:43;;;;;;;4.30;1.80;;;;;;;19.27;69.33;101334.38;5038488;28;20051;-65
2023/06/28 06:12:08;;;;;;;7.97;2.38;;;;;;;19.16;68.78;101331.28;5033767;28;20053;-65
2023/06/28 06:14:34;;;;;;;8.68;2.00;;;;;;;19.15;69.34;101340.03;5037719;28;20657;-65
2023/06/28 06:16:59;;;;;;;6.50;1.98;;;;;;;19.15;69.11;101338.28;5038563;28;20032;-64
2023/06/28 06:19:24;;;;;;;4.95;1.88;;;;;;;19.11;67.73;101317.50;5023408;28;20076;-66
2023/06/28 06:21:50;;;;;;;7.10;2.05;;;;;;;19.09;67.65;101324.56;5039758;28;20040;-63
2023/06/28 06:24:15;;;;;;;4.68;2.20;;;;;;;19.14;68.11;101320.00;5039210;28;20049;-63
2023/06/28 06:26:43;;;;;;;11.23;2.50;;;;;;;19.25;67.91;101318.72;5032835;28;20082;-63
2023/06/28 06:29:08;;;;;;;5.97;2.22;;;;;;;19.34;67.45;101314.91;5035997;28;20090;-63
2023/06/28 06:31:34;;;;;;;7.82;2.13;;;;;;;19.46;67.12;101314.47;5032889;28;20041;-63
2023/06/28 06:34:02;;;;;;;4.82;2.05;;;;;;;19.51;66.03;101309.91;5034532;28;20513;-63
2023/06/28 06:36:28;;;;;;;5.03;2.25;;;;;;;19.55;65.42;101303.66;5037802;28;20103;-62
2023/06/28 06:38:56;;;;;;;6.43;2.30;;;;;;;19.51;64.54;101284.53;5037333;28;20041;-62
2023/06/28 06:41:22;;;;;;;4.40;1.70;;;;;;;19.54;65.13;101302.78;5038782;28;20048;-63
2023/06/28 06:43:48;;;;;;;5.47;2.20;;;;;;;19.62;65.65;101311.22;5037537;28;20061;-62
2023/06/28 06:46:13;;;;;;;7.63;2.00;;;;;;;19.68;65.51;101309.31;5029442;28;20056;-63
2023/06/28 06:48:39;;;;;;;10.85;2.47;;;;;;;19.75;65.70;101313.41;5029222;28;20044;-63
2023/06/28 06:51:05;;;;;;;8.18;2.15;;;;;;;19.94;65.64;101319.72;5035406;28;20502;-62
2023/06/28 06:53:31;;;;;;;7.82;2.30;;;;;;;20.06;64.49;101303.50;5033608;28;20033;-64
2023/06/28 06:55:56;;;;;;;5.50;2.03;;;;;;;20.18;64.13;101303.84;5032186;28;20095;-64
2023/06/28 06:58:23;;;;;;;5.40;2.22;;;;;;;20.31;64.08;101293.72;5032766;28;20040;-64
2023/06/28 07:00:51;;;;;;;5.65;2.10;;;;;;;20.46;63.90;101293.09;5033934;28;20636;-64
2023/06/28 07:03:17;;;;;;;6.38;1.95;;;;;;;20.57;63.28;101298.75;5036749;28;20058;-64
2023/06/28 07:05:42;;;;;;;10.00;1.98;;;;;;;20.59;63.32;101306.59;5036126;28;20049;-65
2023/06/28 07:08:08;;;;;;;4.85;1.95;;;;;;;20.57;63.18;101308.44;5018859;28;20037;-65
2023/06/28 07:10:33;;;;;;;4.72;1.98;;;;;;;20.64;63.48;101315.13;5020571;28;20083;-64
2023/06/28 07:12:58;;;;;;;7.60;2.22;;;;;;;20.60;63.60;101314.41;5034427;28;20060;-64
2023/06/28 07:15:24;;;;;;;4.57;2.30;;;;;;;20.61;63.82;101304.75;5035251;28;20040;-64
2023/06/28 07:17:52;;;;;;;3.85;2.00;;;;;;;20.60;64.62;101321.44;5033123;28;20033;-65
2023/06/28 07:20:18;;;;;;;5.97;2.35;;;;;;;20.69;64.31;101314.06;5033714;28;20032;-65
2023/06/28 07:22:43;;;;;;;6.68;2.13;;;;;;;20.66;62.84;101290.50;5032635;28;20386;-64
2023/06/28 07:25:09;;;;;;;5.00;1.88;;;;;;;20.61;61.31;101278.47;5031658;28;20827;-64
2023/06/28 07:27:34;;;;;;;6.53;2.05;;;;;;;20.50;61.48;101293.84;5034852;28;20068;-64
2023/06/28 07:29:59;;;;;;;7.72;2.20;;;;;;;20.53;62.22;101301.59;5034057;28;20040;-65
2023/06/28 07:32:26;;;;;;;4.40;2.10;;;;;;;20.50;62.69;101304.34;5036888;28;20032;-65
2023/06/28 07:34:53;;;;;;;4.88;1.75;;;;;;;20.57;62.48;101296.13;5036993;28;20029;-64
2023/06/28 07:37:18;;;;;;;6.93;2.38;;;;;;;20.64;62.60;101297.59;5022062;28;20115;-65
2023/06/28 07:39:44;;;;;;;6.88;2.13;;;;;;;20.72;61.72;101278.09;5037709;28;20086;-64
2023/06/28 07:42:09;;;;;;;5.43;1.85;;;;;;;20.76;61.51;101291.00;5032502;28;20036;-64
2023/06/28 07:44:35;;;;;;;5.32;2.20;;;;;;;20.63;61.64;101298.50;5018018;28;20076;-65
2023/06/28 07:47:00;;;;;;;3.75;2.03;;;;;;;20.57;62.49;101314.53;5033221;28;20047;-64
2023/06/28 07:49:25;;;;;;;5.70;2.10;;;;;;;20.54;62.35;101308.56;5032994;28;20139;-65
2023/06/28 07:51:51;;;;;;;9.93;2.72;;;;;;;20.43;61.97;101308.97;5033366;28;20033;-64
2023/06/28 07:54:16;;;;;;;7.63;2.40;;;;;;;20.30;62.10;101307.78;5033688;28;20061;-64
2023/06/28 07:56:42;;;;;;;5.85;1.98;;;;;;;20.13;61.74;101300.56;5035783;28;20577;-64
2023/06/28 07:59:07;;;;;;;9.00;2.35;;;;;;;20.05;62.58;101317.50;5040883;28;20043;-64
2023/06/28 08:01:33;;;;;;;4.30;2.35;;;;;;;19.97;62.89;101312.56;5034970;28;20063;-65
2023/06/28 08:03:59;;;;;;;6.68;2.30;;;;;;;19.97;63.04;101320.44;5035334;28;20079;-64
2023/06/28 08:06:25;;;;;;;7.38;1.92;;;;;;;20.01;62.91;101319.41;5038498;28;20045;-64
2023/06/28 08:08:50;;;;;;;4.90;2.28;;;;;;;20.05;62.86;101318.38;5033141;28;20033;-64
2023/06/28 08:11:16;;;;;;;6.60;2.17;;;;;;;20.09;63.02;101317.34;5031055;28;20040;-65
2023/06/28 08:13:41;;;;;;;10.70;2.22;;;;;;;20.08;61.58;101297.25;5031811;28;20036;-64
2023/06/28 08:16:07;;;;;;;6.20;1.95;;;;;;;20.16;61.38;101300.44;5033742;28;20196;-64
2023/06/28 08:18:34;;;;;;;4.22;1.98;;;;;;;20.33;60.81;101293.69;5032221;28;20080;-65
2023/06/28 08:21:00;;;;;;;5.07;2.13;;;;;;;20.39;60.84;101290.81;5013125;28;20151;-64
2023/06/28 08:23:25;;;;;;;6.78;2.13;;;;;;;20.57;63.80;101332.91;5032848;28;20035;-65
2023/06/28 08:25:50;;;;;;;6.18;1.95;;;;;;;20.64;64.58;101341.41;5033200;28;20132;-64
2023/06/28 08:28:16;;;;;;;15.98;2.90;;;;;;;20.47;65.97;101363.09;5032599;28;20060;-64
2023/06/28 08:30:41;;;;;;;5.35;2.50;;;;;;;20.42;65.93;101353.69;5029659;28;20033;-64
2023/06/28 08:33:06;;;;;;;8.50;2.40;;;;;;;20.46;66.17;101350.88;5019120;28;20040;-64
2023/06/28 08:35:32;;;;;;;6.45;2.58;;;;;;;20.69;66.39;101356.09;5019476;28;20159;-65
2023/06/28 08:37:57;;;;;;;7.57;2.83;;;;;;;20.81;65.36;101343.41;5035507;28;20044;-65
2023/06/28 08:40:27;;;;;;;6.57;2.10;;;;;;;20.69;63.21;101319.31;5033844;28;20558;-64
2023/06/28 08:42:57;;;;;;;7.47;2.30;;;;;;;20.92;63.50;101328.03;5028026;28;20049;-64
2023/06/28 08:45:24;;;;;;;8.60;2.22;;;;;;;21.07;62.07;101308.97;5017441;28;20081;-64
2023/06/28 08:47:49;;;;;;;8.68;2.53;;;;;;;21.25;61.72;101308.19;5036943;28;20048;-64
2023/06/28 08:50:16;;;;;;;8.65;2.42;;;;;;;21.37;60.88;101306.78;5031517;28;20029;-64
2023/06/28 08:52:42;;;;;;;6.97;2.08;;;;;;;21.47;60.21;101290.50;5016102;28;20040;-64
2023/06/28 08:55:08;;;;;;;8.40;2.55;;;;;;;21.47;58.19;101261.59;5032405;28;20030;-64
2023/06/28 08:57:34;;;;;;;10.30;2.45;;;;;;;21.52;58.54;101271.91;5029700;28;20569;-64
2023/06/28 09:00:00;;;;;;;4.75;1.88;;;;;;;21.60;58.00;101269.81;5030043;28;20041;-64
2023/06/28 09:02:30;;;;;;;9.32;2.45;;;;;;;21.58;56.86;101255.88;5031993;28;20029;-64
2023/06/28 09:04:56;;;;;;;5.35;2.22;;;;;;;21.71;56.84;101259.63;5035409;28;20200;-65
2023/06/28 09:07:22;;;;;;;6.22;2.40;;;;;;;21.65;54.81;101229.22;5035877;28;20033;-65
2023/06/28 09:09:50;;;;;;;6.43;2.28;;;;;;;21.73;55.63;101244.63;5031022;28;20627;-65
2023/06/28 09:12:19;;;;;;;5.85;2.00;;;;;;;21.84;55.65;101247.63;5027878;28;20103;-64
2023/06/28 09:14:45;;;;;;;6.50;2.13;;;;;;;21.79;56.21;101265.38;5032895;28;20121;-64
2023/06/28 09:17:10;;;;;;;8.00;1.95;;;;;;;21.60;56.09;101261.91;5021461;28;20397;-64
2023/06/28 09:19:37;;;;;;;5.50;1.70;;;;;;;21.52;57.50;101288.53;5033889;28;20037;-65
2023/06/28 09:22:03;;;;;;;4.50;1.83;;;;;;;21.52;57.62;101295.59;5034626;28;20586;-64
2023/06/28 09:24:32;;;;;;;5.90;1.83;;;;;;;21.46;57.80;101296.69;5012859;28;20728;-64
2023/06/28 09:27:02;;;;;;;6.28;1.95;;;;;;;21.55;55.68;101262.09;5034646;28;20433;-64
2023/06/28 09:29:29;;;;;;;3.35;1.60;;;;;;;21.39;53.79;101234.78;5029791;28;20037;-64
2023/06/28 09:31:54;;;;;;;4.60;1.83;;;;;;;21.34;54.59;101244.66;5037687;28;20047;-64
2023/06/28 09:34:23;;;;;;;5.75;2.55;;;;;;;21.30;57.15;101290.41;5029766;28;20033;-64
2023/06/28 09:36:52;;;;;;;8.07;1.70;;;;;;;21.38;56.68;101287.44;5031706;28;20096;-66
2023/06/28 09:39:20;;;;;;;5.90;2.13;;;;;;;21.45;56.97;101299.41;5036195;28;20040;-64
2023/06/28 09:41:46;;;;;;;6.50;2.25;;;;;;;21.46;55.94;101274.81;5033266;28;20041;-65
2023/06/28 09:44:12;;;;;;;6.82;2.22;;;;;;;21.57;56.28;101272.59;5034571;28;20760;-65
2023/06/28 09:46:47;;;;;;;5.07;2.17;;;;;;;21.81;55.08;101253.03;5033426;28;20041;-65
2023/06/28 09:49:22;;;;;;;4.90;2.00;;;;;;;21.89;52.51;101215.81;5031428;28;20083;-64
2023/06/28 09:52:06;;;;;;;6.75;2.28;;;;;;;22.00;53.06;101237.19;5031183;28;20052;-64
2023/06/28 09:54:44;;;;;;;5.25;2.28;;;;;;;22.09;53.53;101239.38;5016506;28;20163;-65
2023/06/28 09:57:10;;;;;;;7.20;2.42;;;;;;;21.95;53.99;101249.72;5033185;28;20045;-65
2023/06/28 09:59:36;;;;;;;6.13;2.45;;;;;;;22.06;54.66;101257.97;5031677;28;20061;-65
2023/06/28 10:02:07;;;;;;;5.70;2.60;;;;;;;22.11;54.67;101263.88;5031883;28;20044;-64
2023/06/28 10:04:34;;;;;;;5.80;2.20;;;;;;;22.38;54.15;101262.59;5029595;28;20609;-62
2023/06/28 10:07:02;;;;;;;5.40;1.95;;;;;;;22.58;52.81;101246.63;5036909;28;20048;-63
2023/06/28 10:09:38;;;;;;;7.85;2.60;;;;;;;22.76;51.75;101224.63;5033822;28;20044;-62
2023/06/28 10:12:09;;;;;;;6.93;2.60;;;;;;;22.64;50.81;101216.47;5028453;28;20127;-63
2023/06/28 10:14:40;;;;;;;5.80;2.28;;;;;;;22.72;49.27;101201.13;5034833;28;20549;-62
2023/06/28 10:17:06;;;;;;;7.97;2.28;;;;;;;22.79;49.44;101208.66;5033938;28;20025;-62
2023/06/28 10:19:32;;;;;;;6.65;2.25;;;;;;;23.10;49.65;101207.00;5029776;28;20676;-62
2023/06/28 10:21:58;;;;;;;5.30;2.13;;;;;;;23.51;49.70;101213.63;5032656;28;20395;-62
2023/06/28 10:24:31;;;;;;;6.72;3.65;;;;;;;23.84;47.76;101182.69;5030176;28;20100;-63
2023/06/28 10:26:59;;;;;;;5.05;2.47;;;;;;;23.78;46.92;101182.16;5029210;28;20040;-62
2023/06/28 10:29:24;;;;;;;5.40;2.00;;;;;;;23.80;46.82;101188.22;5030961;28;20513;-63
2023/06/28 10:31:50;;;;;;;5.28;2.10;;;;;;;23.69;47.17;101190.63;5036465;28;20032;-62
2023/06/28 10:34:16;;;;;;;4.95;1.80;;;;;;;23.62;47.93;101210.38;5034003;28;20421;-62
2023/06/28 10:36:42;;;;;;;5.85;2.13;;;;;;;23.30;47.42;101197.13;5032330;28;20120;-62
2023/06/28 10:39:08;;;;;;;6.18;2.30;;;;;;;22.96;48.07;101217.44;5029117;28;20507;-63
2023/06/28 10:41:33;;;;;;;5.07;2.10;;;;;;;22.77;48.24;101223.66;5027467;28;20087;-62
2023/06/28 10:44:06;;;;;;;5.22;2.47;;;;;;;22.68;48.49;101225.94;4996923;28;20057;-62
2023/06/28 10:46:33;;;;;;;5.25;2.15;;;;;;;22.71;48.69;101228.44;5026606;28;20107;-62
2023/06/28 10:49:03;;;;;;;5.57;2.10;;;;;;;22.66;47.69;101214.59;5039217;28;20040;-62
2023/06/28 10:51:34;;;;;;;8.43;2.83;;;;;;;22.66;47.16;101204.94;5036208;28;20041;-63
2023/06/28 10:54:13;;;;;;;6.57;2.03;;;;;;;22.59;47.08;101206.16;5029874;28;20033;-63
2023/06/28 10:56:46;;;;;;;6.38;2.28;;;;;;;22.46;47.41;101205.09;5032320;28;20040;-63
2023/06/28 10:59:12;;;;;;;7.43;2.33;;;;;;;22.52;48.36;101225.84;5027846;28;20025;-62
2023/06/28 11:01:49;;;;;;;5.15;2.17;;;;;;;22.52;48.85;101227.63;5035136;28;20419;-62
2023/06/28 11:04:15;;;;;;;5.47;1.88;;;;;;;22.64;49.36;101234.94;5034997;28;20096;-63
2023/06/28 11:06:40;;;;;;;8.90;2.88;;;;;;;22.54;48.50;101226.63;5039279;28;20037;-63
2023/06/28 11:09:16;;;;;;;6.43;2.45;;;;;;;22.44;49.21;101240.34;5034969;28;20041;-63
2023/06/28 11:11:54;;;;;;;6.43;2.35;;;;;;;22.47;48.76;101219.13;5042266;28;20029;-62
2023/06/28 11:14:22;;;;;;;11.73;2.67;;;;;;;22.44;48.79;101214.00;5020155;28;20035;-63
2023/06/28 11:16:49;;;;;;;5.22;2.33;;;;;;;22.54;48.69;101218.72;5019050;28;20055;-63
2023/06/28 11:19:18;;;;;;;9.55;3.25;;;;;;;22.53;48.77;101218.81;5038271;28;20055;-63
2023/06/28 11:21:48;;;;;;;8.43;2.45;;;;;;;22.65;48.98;101219.03;5036493;28;20076;-63